TimeMDT,TemperatureF,Dew PointF,Humidity,Sea Level PressureIn,VisibilityMPH,Wind Direction,Wind SpeedMPH,Gust SpeedMPH,PrecipitationIn,Events,Conditions,WindDirDegrees,DateUTC
12:00 AM,8,5,83,29.87,,NE,19.6,,,,,50,2012-10-12 06:00:00
12:00 AM,7.7,5.4,90,29.87,-9999.0,NE,19.6,-,N/A,,Unknown,50,2012-10-12 06:00:00
1:00 AM,9.1,7.0,91,29.86,-9999.0,ENE,23.0,-,N/A,,Unknown,60,2012-10-12 07:00:00
2:00 AM,8.8,6.3,89,29.85,-9999.0,NE,21.9,-,N/A,,Unknown,50,2012-10-12 08:00:00
3:00 AM,10.0,7.3,89,29.83,-9999.0,NE,18.4,-,N/A,,Unknown,50,2012-10-12 09:00:00
4:00 AM,13.1,9.7,86,29.83,-9999.0,ENE,21.9,-,N/A,,Unknown,60,2012-10-12 10:00:00
5:00 AM,12.6,9.5,88,29.81,-9999.0,NE,19.6,-,N/A,,Unknown,50,2012-10-12 11:00:00
6:00 AM,12,10,86,29.79,,NE,20.7,,,,,50,2012-10-12 12:00:00
6:00 AM,12.4,9.7,89,29.79,-9999.0,NE,20.7,-,N/A,,Unknown,50,2012-10-12 12:00:00
7:00 AM,12.4,10.4,92,29.78,-9999.0,NE,21.9,-,N/A,,Unknown,50,2012-10-12 13:00:00
8:00 AM,13.8,10.4,86,29.75,-9999.0,NE,21.9,-,N/A,,Unknown,50,2012-10-12 14:00:00
9:00 AM,15.3,12.2,88,29.72,-9999.0,NE,26.5,-,N/A,,Unknown,50,2012-10-12 15:00:00
10:00 AM,17.4,14.2,87,29.69,-9999.0,NE,27.6,-,N/A,,Unknown,50,2012-10-12 16:00:00
11:00 AM,20.7,17.8,89,29.65,-9999.0,NE,26.5,-,N/A,,Unknown,40,2012-10-12 17:00:00
1:00 PM,23.5,20.7,89,29.61,-9999.0,NE,27.6,-,N/A,,Unknown,50,2012-10-12 19:00:00
2:00 PM,24.6,22.1,90,29.59,-9999.0,ENE,27.6,-,N/A,,Unknown,60,2012-10-12 20:00:00
3:00 PM,25.3,23.0,91,29.57,-9999.0,NE,28.8,-,N/A,,Unknown,50,2012-10-12 21:00:00
4:00 PM,25.5,22.8,89,29.56,-9999.0,ENE,27.6,-,N/A,,Unknown,60,2012-10-12 22:00:00
5:00 PM,25.7,23.4,91,29.53,-9999.0,NE,26.5,-,N/A,,Unknown,50,2012-10-12 23:00:00
6:00 PM,26,23,85,29.51,,NE,27.6,,,,,50,2012-10-13 00:00:00
6:00 PM,25.9,23.4,90,29.51,-9999.0,NE,27.6,-,N/A,,Unknown,50,2012-10-13 00:00:00
7:00 PM,26.2,23.7,90,29.49,-9999.0,ENE,27.6,-,N/A,,Unknown,60,2012-10-13 01:00:00
8:00 PM,26.2,23.7,90,29.47,-9999.0,ENE,26.5,-,N/A,,Unknown,60,2012-10-13 02:00:00
9:00 PM,26.1,23.4,90,29.45,-9999.0,ENE,26.5,-,N/A,,Unknown,60,2012-10-13 03:00:00
10:00 PM,25.5,23.4,92,29.44,-9999.0,ENE,24.2,-,N/A,,Unknown,70,2012-10-13 04:00:00
11:00 PM,25.7,23.9,93,29.43,-9999.0,ENE,20.7,27.6,N/A,,Unknown,70,2012-10-13 05:00:00